Forside
METAR-TAF:

METAR-TAF

Lufthavne :

Mid-Ohio Valley Regional Airport

Parkersburg, West Virginia, USA

Breddekreds: 39-20-42N, længdekreds: 081-26-21W, højde: 262 m

Aktuelle vejr

Denne rapport blev lavet for 32 minutter siden, kl. 20:53 UTC
Vind 5 kt fra vest
Temperatur 2°C
Fugtighed 75%
Tryk 1014 hPa
Sigt: 16.1 km
Overskyet i en højde af 1700 ft

METAR: KPKB 262053Z 26005KT 10SM OVC017 02/M02 A2993 RMK AO2 SLP142 T00171017 55004

Tid: 16:25 (21:25 UTC)

Vejrudsigter

Denne rapport blev lavet for 4 timer og 1 minutter siden, kl. 17:24 UTC
Foreløbig gælder fra 26 på 18 UTC til 27 på 18 UTC
Vind 7 kt fra vestsydvest med vindstød på up til 16 kt
Sigt: 10 km
Overskyet i en højde af 1200 ft
Fra 26 på 2200 UTC
Vind 4 kt fra vestsydvest
Sigt: 10 km
Spredte skyer i en højde af 1200 ft
Overskyet i en højde af 2200 ft
Fra 27 på 0300 UTC
Vind 4 kt fra vestsydvest
Sigt: 10 km
Brudte skyer i en højde af 1500 ft

TAF: KPKB 261724Z 2618/2718 25007G16KT P6SM OVC012 FM262200 24004KT P6SM SCT012 OVC022 FM270300 25004KT P6SM BKN015

Vejrobservationer og prognoser fra mere end 4000 lufthavne (METAR og TAF).

De gule og røde prikker repræsenterer de meteorologiske stationer.

Flyt musen over at se navnet på stationen.

Så klik over at se vejr observationer og prognoser.

At skifte det kort: Klik på de grønne knapper med et sort kors for at zoome ind; på den grønne knap med en bindestreg for at zoome ud; eller på de grønne pile for tilstødende kort.


METAR-TAF: